Time;durP1;ratioP1;P1;durP2;ratioP2;P2;SDS_P1;SDS_P2;PMS_P1;PMS_P2;Temp;Humidity;BMP_temperature;BMP_pressure;BME280_temperature;BME280_humidity;BME280_pressure;Samples;Min_cycle;Max_cycle;Signal;HPM_P1;HPM_P2
2021/12/22 00:00:59;;;;;;;28.25;15.98;;;;;;;;;;5135358;27;20011;-74
2021/12/22 00:03:26;;;;;;;26.58;14.65;;;;;;;;;;5132341;27;20442;-73
2021/12/22 00:05:53;;;;;;;24.40;13.68;;;;;;;;;;5132401;27;20027;-73
2021/12/22 00:08:19;;;;;;;27.45;14.65;;;;;;;;;;5132515;27;20037;-74
2021/12/22 00:10:46;;;;;;;24.15;13.38;;;;;;;;;;5132366;27;20027;-73
2021/12/22 00:13:13;;;;;;;26.92;13.70;;;;;;;;;;5135150;27;20023;-74
2021/12/22 00:15:39;;;;;;;26.13;13.80;;;;;;;;;;5132803;27;20031;-73
2021/12/22 00:18:06;;;;;;;30.23;14.02;;;;;;;;;;5132196;27;20489;-73
2021/12/22 00:20:32;;;;;;;30.30;14.60;;;;;;;;;;5133914;27;20045;-73
2021/12/22 00:22:59;;;;;;;25.27;12.63;;;;;;;;;;5132341;27;20023;-73
2021/12/22 00:25:26;;;;;;;24.23;13.60;;;;;;;;;;5134316;27;20507;-73
2021/12/22 00:27:54;;;;;;;26.00;12.88;;;;;;;;;;5133935;27;20032;-73
2021/12/22 00:30:23;;;;;;;30.65;13.80;;;;;;;;;;5131988;27;20016;-74
2021/12/22 00:32:52;;;;;;;26.77;13.43;;;;;;;;;;5132204;27;20031;-74
2021/12/22 00:35:20;;;;;;;29.83;14.88;;;;;;;;;;5113512;27;20019;-73
2021/12/22 00:37:47;;;;;;;30.70;13.82;;;;;;;;;;5132311;27;20023;-73
2021/12/22 00:40:13;;;;;;;25.33;12.77;;;;;;;;;;5134774;27;20027;-73
2021/12/22 00:42:39;;;;;;;21.92;11.93;;;;;;;;;;5132603;27;20019;-73
2021/12/22 00:45:06;;;;;;;23.42;12.20;;;;;;;;;;5131297;27;20065;-73
2021/12/22 00:47:33;;;;;;;27.83;12.80;;;;;;;;;;5131565;27;20388;-73
2021/12/22 00:50:00;;;;;;;26.45;13.45;;;;;;;;;;5132140;27;21503;-73
2021/12/22 00:52:27;;;;;;;23.67;13.85;;;;;;;;;;5133534;27;20027;-74
2021/12/22 00:54:53;;;;;;;25.75;13.30;;;;;;;;;;5115441;27;20080;-73
2021/12/22 00:57:20;;;;;;;26.95;13.82;;;;;;;;;;5131486;27;20396;-74
2021/12/22 00:59:47;;;;;;;24.52;13.20;;;;;;;;;;5132648;27;20019;-73
2021/12/22 01:02:15;;;;;;;24.95;13.15;;;;;;;;;;5131248;27;20034;-74
2021/12/22 01:04:42;;;;;;;23.77;12.60;;;;;;;;;;5131650;27;20027;-74
2021/12/22 01:07:08;;;;;;;25.65;13.00;;;;;;;;;;5134634;27;20061;-73
2021/12/22 01:09:35;;;;;;;23.00;12.63;;;;;;;;;;5114324;27;20053;-73
2021/12/22 01:12:02;;;;;;;24.75;12.70;;;;;;;;;;5112877;27;20027;-73
2021/12/22 01:14:28;;;;;;;22.67;13.13;;;;;;;;;;5130894;27;20080;-73
2021/12/22 01:17:00;;;;;;;22.25;12.40;;;;;;;;;;5131554;27;20019;-73
2021/12/22 01:19:35;;;;;;;23.33;13.55;;;;;;;;;;5114424;27;20027;-73
2021/12/22 01:22:19;;;;;;;22.85;12.27;;;;;;;;;;5134009;27;20037;-73
2021/12/22 01:24:59;;;;;;;25.42;12.57;;;;;;;;;;5134178;27;20017;-73
2021/12/22 01:27:27;;;;;;;26.15;12.63;;;;;;;;;;5130393;27;20392;-73
2021/12/22 01:29:54;;;;;;;23.27;12.48;;;;;;;;;;5130581;27;20446;-74
2021/12/22 01:32:21;;;;;;;27.85;12.45;;;;;;;;;;5130771;27;20015;-73
2021/12/22 01:34:47;;;;;;;22.70;12.43;;;;;;;;;;5130896;27;20040;-73
2021/12/22 01:37:13;;;;;;;24.63;12.82;;;;;;;;;;5133515;27;20019;-73
2021/12/22 01:39:40;;;;;;;28.05;13.43;;;;;;;;;;5114528;27;20038;-73
2021/12/22 01:42:06;;;;;;;24.92;12.27;;;;;;;;;;5130347;27;20039;-73
2021/12/22 01:44:46;;;;;;;24.23;13.27;;;;;;;;;;5130661;27;20043;-73
2021/12/22 01:49:58;;;;;;;26.48;12.82;;;;;;;;;;5130433;27;20015;-74
2021/12/22 01:52:24;;;;;;;28.20;13.73;;;;;;;;;;5132472;27;20031;-74
2021/12/22 01:55:03;;;;;;;26.65;12.98;;;;;;;;;;5132093;27;20023;-73
2021/12/22 01:57:29;;;;;;;25.70;12.95;;;;;;;;;;5111541;27;20496;-73
2021/12/22 01:59:56;;;;;;;21.58;11.82;;;;;;;;;;5130129;27;20025;-73
2021/12/22 02:02:23;;;;;;;26.42;13.00;;;;;;;;;;5130531;27;20033;-73
2021/12/22 02:04:49;;;;;;;24.45;12.38;;;;;;;;;;5130110;27;20026;-73
2021/12/22 02:07:15;;;;;;;24.92;12.43;;;;;;;;;;5132410;27;20031;-73
2021/12/22 02:12:20;;;;;;;20.10;11.20;;;;;;;;;;5129822;27;20044;-73
2021/12/22 02:14:47;;;;;;;21.15;11.65;;;;;;;;;;5130153;27;20019;-73
2021/12/22 02:17:13;;;;;;;21.23;11.20;;;;;;;;;;5131482;27;20033;-73
2021/12/22 02:19:49;;;;;;;24.73;12.82;;;;;;;;;;5130174;27;20026;-74
2021/12/22 02:22:17;;;;;;;21.02;11.73;;;;;;;;;;5132561;27;20019;-74
2021/12/22 02:24:52;;;;;;;24.40;12.75;;;;;;;;;;5130825;27;20039;-73
2021/12/22 02:27:33;;;;;;;19.85;11.75;;;;;;;;;;5129799;27;20384;-73
2021/12/22 02:30:04;;;;;;;21.58;11.48;;;;;;;;;;5111255;27;20034;-74
2021/12/22 02:35:39;;;;;;;20.80;10.48;;;;;;;;;;5116157;27;20404;-73
2021/12/22 02:38:14;;;;;;;18.75;10.90;;;;;;;;;;5129772;27;20015;-73
2021/12/22 02:40:42;;;;;;;20.02;10.55;;;;;;;;;;5113463;27;20430;-73
2021/12/22 02:43:08;;;;;;;22.67;10.55;;;;;;;;;;5132802;27;20071;-73
2021/12/22 02:45:36;;;;;;;20.23;11.82;;;;;;;;;;5129851;27;20027;-73
2021/12/22 02:48:04;;;;;;;22.13;11.45;;;;;;;;;;5129410;27;20024;-73
2021/12/22 02:50:34;;;;;;;25.45;12.25;;;;;;;;;;5129400;27;20053;-74
2021/12/22 02:53:05;;;;;;;22.55;12.30;;;;;;;;;;5129533;27;20143;-74
2021/12/22 02:55:48;;;;;;;21.15;11.05;;;;;;;;;;5130459;27;20414;-73
2021/12/22 02:58:40;;;;;;;22.17;11.70;;;;;;;;;;5129214;27;20035;-74
2021/12/22 03:01:28;;;;;;;;;;;;;;;;;;5129141;27;20028;-74
2021/12/22 03:04:05;;;;;;;17.17;9.32;;;;;;;;;;5131437;28;19955;-73
2021/12/22 03:06:43;;;;;;;19.02;10.48;;;;;;;;;;5113671;28;20022;-73
2021/12/22 03:09:15;;;;;;;26.30;11.73;;;;;;;;;;5128761;28;20039;-73
2021/12/22 03:11:42;;;;;;;21.10;11.50;;;;;;;;;;5129231;28;20429;-73
2021/12/22 03:14:08;;;;;;;22.80;13.40;;;;;;;;;;5111001;28;20115;-73
2021/12/22 03:16:34;;;;;;;28.88;14.30;;;;;;;;;;5130048;28;20083;-74
2021/12/22 03:19:01;;;;;;;22.45;12.35;;;;;;;;;;5114256;28;20038;-73
2021/12/22 03:21:27;;;;;;;21.02;11.70;;;;;;;;;;5129226;28;20049;-74
2021/12/22 03:23:55;;;;;;;21.70;11.95;;;;;;;;;;5128702;28;20023;-73
2021/12/22 03:26:23;;;;;;;18.98;10.60;;;;;;;;;;5129181;28;20015;-74
2021/12/22 03:28:50;;;;;;;23.05;11.52;;;;;;;;;;5128980;28;20028;-73
2021/12/22 03:31:16;;;;;;;19.63;11.38;;;;;;;;;;5132616;27;20034;-73
2021/12/22 03:33:43;;;;;;;22.33;11.75;;;;;;;;;;5134067;27;20027;-74
2021/12/22 03:36:10;;;;;;;20.52;11.02;;;;;;;;;;5116358;27;20035;-72
2021/12/22 03:38:37;;;;;;;21.27;11.15;;;;;;;;;;5132853;27;20021;-74
2021/12/22 03:41:04;;;;;;;22.38;10.75;;;;;;;;;;5133502;27;20027;-73
2021/12/22 03:43:31;;;;;;;19.63;11.40;;;;;;;;;;5134005;27;20042;-74
2021/12/22 03:45:58;;;;;;;20.08;10.88;;;;;;;;;;5135710;27;20055;-73
2021/12/22 03:48:25;;;;;;;20.77;11.35;;;;;;;;;;5132637;27;20468;-73
2021/12/22 03:50:52;;;;;;;18.17;10.68;;;;;;;;;;5133180;27;20026;-73
2021/12/22 03:53:18;;;;;;;19.08;10.85;;;;;;;;;;5114107;27;20031;-73
2021/12/22 03:55:45;;;;;;;20.05;10.23;;;;;;;;;;5132516;27;20012;-74
2021/12/22 03:58:11;;;;;;;17.83;10.52;;;;;;;;;;5135980;27;20027;-73
2021/12/22 04:00:38;;;;;;;20.90;10.27;;;;;;;;;;5133233;27;20477;-73
2021/12/22 04:03:05;;;;;;;19.73;11.18;;;;;;;;;;5114461;27;20027;-73
2021/12/22 04:05:32;;;;;;;19.83;10.90;;;;;;;;;;5132806;27;20037;-74
2021/12/22 04:07:58;;;;;;;19.95;11.98;;;;;;;;;;5132191;27;20030;-73
2021/12/22 04:10:25;;;;;;;22.48;11.23;;;;;;;;;;5134502;27;20485;-74
2021/12/22 04:12:53;;;;;;;21.00;11.20;;;;;;;;;;5134043;27;20023;-73
2021/12/22 04:15:20;;;;;;;19.75;11.25;;;;;;;;;;5133751;27;20031;-73
2021/12/22 04:17:46;;;;;;;23.80;12.88;;;;;;;;;;5114026;27;20392;-73
2021/12/22 04:20:13;;;;;;;19.40;11.85;;;;;;;;;;5132492;27;20015;-73
2021/12/22 04:22:39;;;;;;;22.75;12.20;;;;;;;;;;5131985;27;20023;-73
2021/12/22 04:25:08;;;;;;;19.48;10.70;;;;;;;;;;5135712;27;20024;-73
2021/12/22 04:27:35;;;;;;;18.55;10.43;;;;;;;;;;5134085;27;20076;-73
2021/12/22 04:30:01;;;;;;;23.80;11.43;;;;;;;;;;5131872;27;20031;-73
2021/12/22 04:32:28;;;;;;;23.98;10.73;;;;;;;;;;5132129;27;20023;-73
2021/12/22 04:34:54;;;;;;;21.42;11.30;;;;;;;;;;5132187;27;20020;-73
2021/12/22 04:37:20;;;;;;;20.58;11.13;;;;;;;;;;5133985;27;20043;-74
2021/12/22 04:39:47;;;;;;;21.55;11.05;;;;;;;;;;5132867;27;20023;-73
2021/12/22 04:42:15;;;;;;;19.65;11.43;;;;;;;;;;5131342;27;20023;-73
2021/12/22 04:44:41;;;;;;;20.65;11.18;;;;;;;;;;5130820;27;20061;-73
2021/12/22 04:47:08;;;;;;;26.48;10.93;;;;;;;;;;5113455;27;20366;-73
2021/12/22 04:49:34;;;;;;;20.77;11.70;;;;;;;;;;5132515;27;20482;-73
2021/12/22 04:52:03;;;;;;;20.55;11.82;;;;;;;;;;5134637;27;20027;-73
2021/12/22 04:54:35;;;;;;;20.80;11.40;;;;;;;;;;5114536;27;20024;-73
2021/12/22 04:57:01;;;;;;;22.88;11.75;;;;;;;;;;5131625;27;20035;-73
2021/12/22 04:59:28;;;;;;;19.70;11.35;;;;;;;;;;5131705;27;20030;-73
2021/12/22 05:01:56;;;;;;;19.67;11.40;;;;;;;;;;5113168;27;20389;-73
2021/12/22 05:04:22;;;;;;;22.13;11.32;;;;;;;;;;5133754;27;20387;-73
2021/12/22 05:06:48;;;;;;;27.40;11.38;;;;;;;;;;5132893;27;20037;-73
2021/12/22 05:09:15;;;;;;;20.98;11.50;;;;;;;;;;5112710;27;20497;-74
2021/12/22 05:11:41;;;;;;;20.70;12.07;;;;;;;;;;5131562;27;20023;-74
2021/12/22 05:14:08;;;;;;;18.58;11.00;;;;;;;;;;5131582;27;20029;-73
2021/12/22 05:16:44;;;;;;;22.08;11.93;;;;;;;;;;5131821;27;20022;-73
2021/12/22 05:19:14;;;;;;;21.10;11.85;;;;;;;;;;5130320;27;20015;-73
2021/12/22 05:21:41;;;;;;;20.98;10.93;;;;;;;;;;5132218;27;20450;-73
2021/12/22 05:24:08;;;;;;;21.65;11.80;;;;;;;;;;5131312;27;20037;-73
2021/12/22 05:26:35;;;;;;;24.30;12.95;;;;;;;;;;5130954;27;20031;-73
2021/12/22 05:29:01;;;;;;;25.23;12.95;;;;;;;;;;5130831;27;20057;-73
2021/12/22 05:31:27;;;;;;;30.17;13.82;;;;;;;;;;5113935;27;20020;-73
2021/12/22 05:33:55;;;;;;;24.45;12.70;;;;;;;;;;5133828;27;20041;-73
2021/12/22 05:36:21;;;;;;;24.27;13.10;;;;;;;;;;5130690;27;20019;-73
2021/12/22 05:38:48;;;;;;;23.27;11.55;;;;;;;;;;5131256;27;20035;-73
2021/12/22 05:41:14;;;;;;;25.50;13.48;;;;;;;;;;5130647;27;20524;-73
2021/12/22 05:43:41;;;;;;;23.73;13.02;;;;;;;;;;5130430;27;20035;-73
2021/12/22 05:46:07;;;;;;;23.52;13.02;;;;;;;;;;5134138;27;20044;-73
2021/12/22 05:48:34;;;;;;;21.63;11.85;;;;;;;;;;5130304;27;20075;-74
2021/12/22 05:51:01;;;;;;;21.80;12.10;;;;;;;;;;5130545;27;20019;-73
2021/12/22 05:53:28;;;;;;;21.73;12.50;;;;;;;;;;5130531;27;20075;-73
2021/12/22 05:55:55;;;;;;;19.45;11.25;;;;;;;;;;5130315;27;20022;-73
2021/12/22 05:58:22;;;;;;;19.48;11.20;;;;;;;;;;5132723;27;20029;-73
2021/12/22 06:00:49;;;;;;;29.77;15.25;;;;;;;;;;5131436;27;20019;-74
2021/12/22 06:03:15;;;;;;;31.77;16.35;;;;;;;;;;5129789;27;20434;-73
2021/12/22 06:05:42;;;;;;;26.73;14.30;;;;;;;;;;5130424;27;20019;-73
2021/12/22 06:08:08;;;;;;;24.13;13.15;;;;;;;;;;5130207;27;20039;-73
2021/12/22 06:10:35;;;;;;;21.80;11.80;;;;;;;;;;5113140;27;20012;-73
2021/12/22 06:13:05;;;;;;;20.35;11.45;;;;;;;;;;5133868;27;20033;-73
2021/12/22 06:15:31;;;;;;;21.10;12.02;;;;;;;;;;5131644;27;20503;-73
2021/12/22 06:17:59;;;;;;;22.80;12.55;;;;;;;;;;5129859;27;20024;-73
2021/12/22 06:20:26;;;;;;;19.42;11.30;;;;;;;;;;5129887;27;20015;-73
2021/12/22 06:22:53;;;;;;;17.88;10.30;;;;;;;;;;5130052;27;20027;-73
2021/12/22 06:25:19;;;;;;;22.35;11.90;;;;;;;;;;5132294;27;20027;-73
2021/12/22 06:27:46;;;;;;;21.55;10.82;;;;;;;;;;5130851;27;20033;-73
2021/12/22 06:30:12;;;;;;;20.08;11.18;;;;;;;;;;5130012;27;20041;-73
2021/12/22 06:32:38;;;;;;;21.67;11.32;;;;;;;;;;5111339;27;20470;-73
2021/12/22 06:35:05;;;;;;;19.75;11.30;;;;;;;;;;5129519;27;20027;-73
2021/12/22 06:37:32;;;;;;;21.02;10.95;;;;;;;;;;5130927;27;20032;-73
2021/12/22 06:39:58;;;;;;;18.88;10.85;;;;;;;;;;5132446;27;20027;-73
2021/12/22 06:42:24;;;;;;;21.17;12.05;;;;;;;;;;5129397;27;20027;-73
2021/12/22 06:44:51;;;;;;;20.75;11.25;;;;;;;;;;5129521;27;20490;-73
2021/12/22 06:47:18;;;;;;;20.95;10.75;;;;;;;;;;5128992;27;20027;-71
2021/12/22 06:49:45;;;;;;;19.00;10.82;;;;;;;;;;5130983;27;20031;-71
2021/12/22 06:52:11;;;;;;;22.52;12.15;;;;;;;;;;5132739;27;20071;-72
2021/12/22 06:54:37;;;;;;;19.23;10.98;;;;;;;;;;5129751;27;20023;-73
2021/12/22 06:57:04;;;;;;;27.85;14.23;;;;;;;;;;5129667;27;20024;-73
2021/12/22 06:59:32;;;;;;;25.33;14.02;;;;;;;;;;5129452;27;20023;-73
2021/12/22 07:01:58;;;;;;;24.48;13.32;;;;;;;;;;5129120;27;20504;-74
2021/12/22 07:04:25;;;;;;;34.10;17.38;;;;;;;;;;5113037;28;20375;-73
2021/12/22 07:06:52;;;;;;;23.05;12.18;;;;;;;;;;5130294;27;20015;-73
2021/12/22 07:09:18;;;;;;;23.42;13.48;;;;;;;;;;5110820;28;20041;-74
2021/12/22 07:11:44;;;;;;;22.08;11.93;;;;;;;;;;5129179;28;20011;-73
2021/12/22 07:14:11;;;;;;;28.65;12.65;;;;;;;;;;5129334;28;20019;-73
2021/12/22 07:16:38;;;;;;;19.55;11.73;;;;;;;;;;5112825;28;20027;-73
2021/12/22 07:19:04;;;;;;;23.27;12.00;;;;;;;;;;5132841;28;20031;-73
2021/12/22 07:21:31;;;;;;;42.90;18.05;;;;;;;;;;5129153;28;20389;-73
2021/12/22 07:23:58;;;;;;;20.50;11.52;;;;;;;;;;5129066;28;20019;-73
2021/12/22 07:26:24;;;;;;;48.47;18.23;;;;;;;;;;5129105;28;20026;-73
2021/12/22 07:28:50;;;;;;;38.65;15.30;;;;;;;;;;5130512;28;20039;-73
2021/12/22 07:31:17;;;;;;;27.05;12.98;;;;;;;;;;5130975;28;20062;-73
2021/12/22 07:33:48;;;;;;;22.08;12.18;;;;;;;;;;5130002;28;20031;-73
2021/12/22 07:36:14;;;;;;;33.28;18.33;;;;;;;;;;5129272;27;20031;-73
2021/12/22 07:38:40;;;;;;;43.30;17.35;;;;;;;;;;5128969;28;20031;-72
2021/12/22 07:41:08;;;;;;;30.23;13.85;;;;;;;;;;5128899;28;20386;-73
2021/12/22 07:43:36;;;;;;;30.05;12.93;;;;;;;;;;5129451;28;20044;-73
2021/12/22 07:46:03;;;;;;;42.08;15.27;;;;;;;;;;5131924;28;20400;-73
2021/12/22 07:48:30;;;;;;;27.55;11.52;;;;;;;;;;5128709;28;20446;-73
2021/12/22 07:50:56;;;;;;;26.00;12.73;;;;;;;;;;5128991;28;20114;-73
2021/12/22 07:53:23;;;;;;;22.08;12.00;;;;;;;;;;5128456;28;20403;-73
2021/12/22 07:55:53;;;;;;;23.52;11.02;;;;;;;;;;5128915;28;20016;-73
2021/12/22 07:58:20;;;;;;;18.33;9.68;;;;;;;;;;5130992;28;20035;-73
2021/12/22 08:00:46;;;;;;;17.70;8.45;;;;;;;;;;5129820;28;20392;-74
2021/12/22 08:03:13;;;;;;;14.45;7.95;;;;;;;;;;5128688;28;20030;-73
2021/12/22 08:05:39;;;;;;;14.35;7.00;;;;;;;;;;5128723;28;20413;-73
2021/12/22 08:08:06;;;;;;;12.32;6.53;;;;;;;;;;5130105;28;20040;-73
2021/12/22 08:10:32;;;;;;;10.27;6.30;;;;;;;;;;5129932;28;20023;-73
2021/12/22 08:12:59;;;;;;;18.05;8.93;;;;;;;;;;5131159;28;20023;-73
2021/12/22 08:15:25;;;;;;;14.48;7.68;;;;;;;;;;5128684;27;20046;-73
2021/12/22 08:17:53;;;;;;;15.45;8.32;;;;;;;;;;5130377;27;20523;-73
2021/12/22 08:20:20;;;;;;;12.20;6.60;;;;;;;;;;5132609;27;20034;-73
2021/12/22 08:22:46;;;;;;;11.73;6.97;;;;;;;;;;5132248;27;20466;-71
2021/12/22 08:25:13;;;;;;;12.73;6.45;;;;;;;;;;5135137;27;20037;-72
2021/12/22 08:27:39;;;;;;;9.25;5.80;;;;;;;;;;5132609;27;20515;-73
2021/12/22 08:30:07;;;;;;;9.50;5.72;;;;;;;;;;5132165;27;20045;-72
2021/12/22 08:32:34;;;;;;;11.13;5.75;;;;;;;;;;5132395;27;20027;-73
2021/12/22 08:35:02;;;;;;;10.15;6.10;;;;;;;;;;5132215;27;20016;-72
2021/12/22 08:40:14;;;;;;;8.85;6.30;;;;;;;;;;5131451;27;20019;-73
2021/12/22 08:42:41;;;;;;;10.35;6.55;;;;;;;;;;5132396;27;20023;-73
2021/12/22 08:45:08;;;;;;;10.98;6.32;;;;;;;;;;5131629;27;20531;-74
2021/12/22 08:47:35;;;;;;;9.05;5.78;;;;;;;;;;5133184;27;20028;-74
2021/12/22 08:50:01;;;;;;;10.77;6.75;;;;;;;;;;5131882;27;20027;-73
2021/12/22 08:52:27;;;;;;;9.27;6.28;;;;;;;;;;5133753;27;20489;-73
2021/12/22 08:54:54;;;;;;;8.25;5.63;;;;;;;;;;5133698;27;20037;-73
2021/12/22 08:57:20;;;;;;;7.78;5.55;;;;;;;;;;5131017;27;20501;-73
2021/12/22 08:59:46;;;;;;;6.97;5.55;;;;;;;;;;5131661;27;20033;-73
2021/12/22 09:02:13;;;;;;;7.07;5.10;;;;;;;;;;5131484;27;20011;-74
2021/12/22 09:04:39;;;;;;;7.57;5.30;;;;;;;;;;5131782;27;20023;-73
2021/12/22 09:07:06;;;;;;;6.63;5.22;;;;;;;;;;5130324;27;20030;-74
2021/12/22 09:09:32;;;;;;;9.90;5.10;;;;;;;;;;5131347;27;20032;-73
2021/12/22 09:11:59;;;;;;;8.13;4.30;;;;;;;;;;5131195;27;20023;-74
2021/12/22 09:14:25;;;;;;;8.35;5.43;;;;;;;;;;5131263;27;20019;-73
2021/12/22 09:16:53;;;;;;;10.20;6.22;;;;;;;;;;5131425;27;20026;-73
2021/12/22 09:19:19;;;;;;;7.72;6.15;;;;;;;;;;5133286;27;20512;-74
2021/12/22 09:21:46;;;;;;;10.77;6.78;;;;;;;;;;5132125;27;20489;-73
2021/12/22 09:24:13;;;;;;;7.80;6.50;;;;;;;;;;5131028;27;20359;-73
2021/12/22 09:26:39;;;;;;;9.45;6.63;;;;;;;;;;5132092;27;20026;-73
2021/12/22 09:29:08;;;;;;;10.07;7.00;;;;;;;;;;5130323;27;20042;-73
2021/12/22 09:31:34;;;;;;;9.90;6.88;;;;;;;;;;5131965;27;20020;-73
2021/12/22 09:34:01;;;;;;;9.02;6.68;;;;;;;;;;5133624;27;20031;-73
2021/12/22 09:36:27;;;;;;;10.90;6.90;;;;;;;;;;5112368;27;20035;-73
2021/12/22 09:38:53;;;;;;;10.35;6.50;;;;;;;;;;5131063;27;20075;-73
2021/12/22 09:41:20;;;;;;;8.45;6.82;;;;;;;;;;5130557;27;20031;-73
2021/12/22 09:43:47;;;;;;;13.15;7.72;;;;;;;;;;5130392;27;20410;-73
2021/12/22 09:46:17;;;;;;;10.55;7.93;;;;;;;;;;5133778;27;20385;-73
2021/12/22 09:48:50;;;;;;;11.35;7.00;;;;;;;;;;5132948;27;20031;-73
2021/12/22 09:53:45;;;;;;;10.35;7.05;;;;;;;;;;5130268;27;20031;-73
2021/12/22 09:56:14;;;;;;;10.98;7.82;;;;;;;;;;5130022;27;20493;-73
2021/12/22 09:58:42;;;;;;;11.77;7.25;;;;;;;;;;5130450;27;20031;-73
2021/12/22 10:01:08;;;;;;;11.13;7.55;;;;;;;;;;5133910;27;20477;-73
2021/12/22 10:03:35;;;;;;;12.73;7.10;;;;;;;;;;5130224;27;20420;-73
2021/12/22 10:06:02;;;;;;;14.38;7.82;;;;;;;;;;5131602;27;20034;-73
2021/12/22 10:08:28;;;;;;;8.63;6.55;;;;;;;;;;5130275;27;20027;-73
2021/12/22 10:11:09;;;;;;;12.43;7.85;;;;;;;;;;5130410;27;20084;-74
2021/12/22 10:13:37;;;;;;;16.02;8.38;;;;;;;;;;5131361;27;20019;-72
2021/12/22 10:16:12;;;;;;;14.57;8.25;;;;;;;;;;5133001;27;20201;-73
2021/12/22 10:18:38;;;;;;;13.73;7.97;;;;;;;;;;5130586;27;20021;-73
2021/12/22 10:21:23;;;;;;;13.05;7.80;;;;;;;;;;5130273;27;20023;-73
2021/12/22 10:23:51;;;;;;;9.55;6.45;;;;;;;;;;5129341;27;20416;-73
2021/12/22 10:26:19;;;;;;;8.70;6.55;;;;;;;;;;5130087;27;20023;-73
2021/12/22 10:28:53;;;;;;;8.77;6.15;;;;;;;;;;5129796;27;20559;-73
2021/12/22 10:31:23;;;;;;;9.95;6.80;;;;;;;;;;5131949;27;20019;-73
2021/12/22 10:33:49;;;;;;;11.13;6.72;;;;;;;;;;5130652;27;20027;-73
2021/12/22 10:36:21;;;;;;;10.30;6.90;;;;;;;;;;5129732;27;20545;-72
2021/12/22 10:38:47;;;;;;;;;;;;;;;;;;5129981;27;20075;-72
2021/12/22 10:41:13;;;;;;;8.77;6.28;;;;;;;;;;5128698;27;19903;-73
2021/12/22 10:43:50;;;;;;;9.27;6.97;;;;;;;;;;5131247;27;20034;-73
2021/12/22 10:46:25;;;;;;;8.85;6.35;;;;;;;;;;5129231;27;20027;-73
2021/12/22 10:49:15;;;;;;;9.57;6.32;;;;;;;;;;5114751;27;20043;-73
2021/12/22 10:51:43;;;;;;;9.07;6.85;;;;;;;;;;5130262;27;20027;-72
2021/12/22 10:54:11;;;;;;;11.98;7.07;;;;;;;;;;5128982;27;20023;-73
2021/12/22 10:56:38;;;;;;;12.50;7.60;;;;;;;;;;5129628;27;20023;-73
2021/12/22 10:59:12;;;;;;;10.18;6.68;;;;;;;;;;5129455;27;20019;-73
2021/12/22 11:01:40;;;;;;;8.93;6.95;;;;;;;;;;5113273;27;20470;-73
2021/12/22 11:04:22;;;;;;;10.65;6.47;;;;;;;;;;5128644;27;20019;-73
2021/12/22 11:06:53;;;;;;;10.77;7.07;;;;;;;;;;5132126;28;20028;-73
2021/12/22 11:09:20;;;;;;;8.68;6.32;;;;;;;;;;5129140;28;20046;-72
2021/12/22 11:11:51;;;;;;;10.50;6.72;;;;;;;;;;5129223;28;20026;-73
2021/12/22 11:14:25;;;;;;;8.70;6.70;;;;;;;;;;5129283;28;20023;-73
2021/12/22 11:16:51;;;;;;;8.57;6.32;;;;;;;;;;5129334;28;20024;-73
2021/12/22 11:19:17;;;;;;;9.50;6.45;;;;;;;;;;5131608;28;20027;-73
2021/12/22 11:21:58;;;;;;;8.75;6.22;;;;;;;;;;5129805;28;20027;-73
2021/12/22 11:24:26;;;;;;;8.48;6.30;;;;;;;;;;5112091;28;20027;-73
2021/12/22 11:26:53;;;;;;;8.30;6.50;;;;;;;;;;5129256;28;20087;-73
2021/12/22 11:29:19;;;;;;;9.32;6.40;;;;;;;;;;5129167;27;20031;-73
2021/12/22 11:31:47;;;;;;;7.20;6.03;;;;;;;;;;5110816;28;20075;-72
2021/12/22 11:34:14;;;;;;;11.00;6.20;;;;;;;;;;5113969;28;20023;-73
2021/12/22 11:36:41;;;;;;;7.63;5.80;;;;;;;;;;5129482;28;20535;-73
2021/12/22 11:39:08;;;;;;;7.57;6.13;;;;;;;;;;5128873;28;20501;-73
2021/12/22 11:41:43;;;;;;;7.30;5.80;;;;;;;;;;5129026;28;20019;-73
2021/12/22 11:44:10;;;;;;;8.02;6.22;;;;;;;;;;5128687;28;20404;-73
2021/12/22 11:46:37;;;;;;;8.93;6.70;;;;;;;;;;5129823;28;20503;-73
2021/12/22 11:49:04;;;;;;;8.05;6.55;;;;;;;;;;5132239;28;20382;-73
2021/12/22 11:51:32;;;;;;;8.95;6.50;;;;;;;;;;5128538;27;20015;-73
2021/12/22 11:54:00;;;;;;;7.40;6.05;;;;;;;;;;5132793;27;20029;-73
2021/12/22 11:56:42;;;;;;;9.15;5.88;;;;;;;;;;5132769;27;20012;-72
2021/12/22 11:59:25;;;;;;;9.68;6.70;;;;;;;;;;5133130;27;20027;-73
2021/12/22 12:02:10;;;;;;;11.13;6.30;;;;;;;;;;5102569;27;20388;-72
2021/12/22 12:04:36;;;;;;;9.55;6.20;;;;;;;;;;5133035;27;20080;-72
2021/12/22 12:07:03;;;;;;;8.68;5.97;;;;;;;;;;5135710;27;20083;-72
2021/12/22 12:09:30;;;;;;;12.02;6.70;;;;;;;;;;5132714;27;20031;-73
2021/12/22 12:11:58;;;;;;;9.15;6.80;;;;;;;;;;5132779;27;20020;-72
2021/12/22 12:23:31;;;;;;;10.65;6.53;;;;;;;;;;5119730;27;20019;-72
2021/12/22 12:26:02;;;;;;;13.05;6.85;;;;;;;;;;5108320;27;20020;-72
2021/12/22 12:28:29;;;;;;;7.28;6.32;;;;;;;;;;5134047;27;20049;-72
2021/12/22 12:30:56;;;;;;;9.45;6.97;;;;;;;;;;5134093;27;20039;-72
2021/12/22 12:33:22;;;;;;;10.57;6.88;;;;;;;;;;5131994;27;20034;-72
2021/12/22 12:35:50;;;;;;;10.13;6.88;;;;;;;;;;5131741;27;20473;-73
2021/12/22 12:38:18;;;;;;;6.90;5.72;;;;;;;;;;5131891;27;20011;-73
2021/12/22 12:41:05;;;;;;;9.52;6.10;;;;;;;;;;5133705;27;20027;-72
2021/12/22 12:43:41;;;;;;;8.68;6.03;;;;;;;;;;5133162;27;20808;-73
2021/12/22 12:46:20;;;;;;;11.95;7.15;;;;;;;;;;5131382;27;20030;-73
2021/12/22 12:48:49;;;;;;;10.57;6.90;;;;;;;;;;5134160;27;20489;-73
2021/12/22 12:51:17;;;;;;;9.60;6.80;;;;;;;;;;5131601;27;20027;-72
2021/12/22 12:53:44;;;;;;;8.98;6.95;;;;;;;;;;5131558;27;20038;-70
2021/12/22 12:56:12;;;;;;;9.80;7.18;;;;;;;;;;5132109;27;20015;-73
2021/12/22 12:58:52;;;;;;;9.07;7.30;;;;;;;;;;5131997;27;20075;-73
2021/12/22 13:01:18;;;;;;;9.75;7.15;;;;;;;;;;5130724;27;20446;-72
2021/12/22 13:03:51;;;;;;;24.83;13.73;;;;;;;;;;5131062;27;20388;-73
2021/12/22 13:06:17;;;;;;;16.75;9.07;;;;;;;;;;5131432;27;20027;-73
2021/12/22 13:08:44;;;;;;;13.75;9.80;;;;;;;;;;5131447;27;20027;-72
2021/12/22 13:11:12;;;;;;;20.15;13.13;;;;;;;;;;5131358;27;20022;-73
2021/12/22 13:16:40;;;;;;;22.08;13.20;;;;;;;;;;5030284;28;20034;-72
2021/12/22 13:19:07;;;;;;;17.40;10.15;;;;;;;;;;5030858;28;20051;-72
2021/12/22 13:21:33;;;;;;;17.48;9.40;;;;;;;;;;5030760;28;20057;-72
2021/12/22 13:24:00;;;;;;;22.88;10.60;;;;;;;;;;5030586;28;20033;-73
2021/12/22 13:26:26;;;;;;;18.17;9.38;;;;;;;;;;5030461;28;20531;-73
2021/12/22 13:28:52;;;;;;;11.13;6.63;;;;;;;;;;5030572;28;20035;-72
2021/12/22 13:31:19;;;;;;;13.20;8.55;;;;;;;;;;5030448;28;20033;-72
2021/12/22 13:33:51;;;;;;;18.92;7.63;;;;;;;;;;5030474;28;20041;-73
2021/12/22 13:36:17;;;;;;;8.77;4.68;;;;;;;;;;5030531;28;20036;-73
2021/12/22 13:38:43;;;;;;;8.35;5.13;;;;;;;;;;5030282;28;20036;-73
2021/12/22 13:41:10;;;;;;;12.98;7.13;;;;;;;;;;5030406;28;20027;-73
2021/12/22 13:43:39;;;;;;;10.07;5.00;;;;;;;;;;5030249;28;20508;-73
2021/12/22 13:46:11;;;;;;;9.68;6.25;;;;;;;;;;5018490;28;20104;-73
2021/12/22 13:48:44;;;;;;;8.48;5.20;;;;;;;;;;5030421;28;20033;-73
2021/12/22 13:51:12;;;;;;;5.50;3.33;;;;;;;;;;5037705;27;20554;-73
2021/12/22 13:53:41;;;;;;;6.63;4.07;;;;;;;;;;5130712;27;20019;-73
2021/12/22 13:56:13;;;;;;;7.40;4.05;;;;;;;;;;5130804;27;20021;-73
2021/12/22 13:58:39;;;;;;;7.78;4.43;;;;;;;;;;5115569;27;20023;-73
2021/12/22 14:01:12;;;;;;;5.80;3.25;;;;;;;;;;5133571;27;20451;-72
2021/12/22 14:03:39;;;;;;;5.43;3.53;;;;;;;;;;5115093;27;20027;-72
2021/12/22 14:06:06;;;;;;;14.27;4.18;;;;;;;;;;5112223;27;20080;-72
2021/12/22 14:08:33;;;;;;;8.43;3.70;;;;;;;;;;5130199;27;20035;-73
2021/12/22 14:10:59;;;;;;;7.00;3.90;;;;;;;;;;5130502;27;20020;-72
2021/12/22 14:13:27;;;;;;;6.65;3.90;;;;;;;;;;5132548;27;20019;-72
2021/12/22 14:15:53;;;;;;;6.82;3.67;;;;;;;;;;5131039;27;20030;-73
2021/12/22 14:18:20;;;;;;;9.05;3.58;;;;;;;;;;5130117;27;20018;-73
2021/12/22 14:20:46;;;;;;;10.30;3.63;;;;;;;;;;5130384;27;20062;-73
2021/12/22 14:23:13;;;;;;;7.22;3.40;;;;;;;;;;5130079;27;20019;-73
2021/12/22 14:25:40;;;;;;;7.72;3.50;;;;;;;;;;5130435;27;20037;-73
2021/12/22 14:28:25;;;;;;;7.72;3.63;;;;;;;;;;5133254;27;20031;-73
2021/12/22 14:30:51;;;;;;;7.95;3.85;;;;;;;;;;5132947;27;20035;-72
2021/12/22 14:33:19;;;;;;;9.32;4.32;;;;;;;;;;5129540;27;20031;-73
2021/12/22 14:35:53;;;;;;;6.43;3.60;;;;;;;;;;5129678;27;20023;-73
2021/12/22 14:38:20;;;;;;;7.10;3.95;;;;;;;;;;5131209;27;20035;-73
2021/12/22 14:40:54;;;;;;;9.95;4.05;;;;;;;;;;5129693;27;20500;-72
2021/12/22 14:43:22;;;;;;;8.82;4.18;;;;;;;;;;5113942;27;20051;-73
2021/12/22 14:45:49;;;;;;;4.18;3.50;;;;;;;;;;5130644;27;20023;-73
2021/12/22 14:48:17;;;;;;;10.52;4.53;;;;;;;;;;5129270;27;20043;-73
2021/12/22 14:50:56;;;;;;;11.52;4.18;;;;;;;;;;5129814;27;20019;-74
2021/12/22 14:53:33;;;;;;;5.50;3.03;;;;;;;;;;5111015;28;20027;-73
2021/12/22 14:56:00;;;;;;;11.35;3.58;;;;;;;;;;5129502;27;20026;-73
2021/12/22 14:58:28;;;;;;;8.25;4.10;;;;;;;;;;5131886;27;20023;-73